createdAt,value
2023-03-16T00:00:13.920Z,37.14
2023-03-16T00:03:02.023Z,37.17
2023-03-16T00:05:30.352Z,36.77
2023-03-16T00:07:58.350Z,36.56
2023-03-16T00:10:27.907Z,36.70
2023-03-16T00:12:58.862Z,36.81
2023-03-16T00:15:27.231Z,36.24
2023-03-16T00:17:55.194Z,36.45
2023-03-16T00:20:23.522Z,36.58
2023-03-16T00:22:51.488Z,36.20
2023-03-16T00:25:19.835Z,36.45
2023-03-16T00:27:47.863Z,36.25
2023-03-16T00:30:16.430Z,36.12
2023-03-16T00:32:44.352Z,36.24
2023-03-16T00:35:13.124Z,36.03
2023-03-16T00:37:43.072Z,36.38
2023-03-16T00:40:14.653Z,36.25
2023-03-16T00:42:44.028Z,36.04
2023-03-16T00:45:12.547Z,35.83
2023-03-16T00:47:42.390Z,35.90
2023-03-16T00:50:11.802Z,35.95
2023-03-16T00:52:39.814Z,35.74
2023-03-16T00:55:08.805Z,35.74
2023-03-16T00:57:36.895Z,35.75
2023-03-16T01:00:15.102Z,35.54
2023-03-16T01:02:45.543Z,35.85
2023-03-16T01:05:15.038Z,35.36
2023-03-16T01:07:43.190Z,35.74
2023-03-16T01:10:12.164Z,35.83
2023-03-16T01:12:40.992Z,35.69
2023-03-16T01:15:10.565Z,35.50
2023-03-16T01:17:38.723Z,35.42
2023-03-16T01:20:12.427Z,35.52
2023-03-16T01:22:40.513Z,35.73
2023-03-16T01:25:12.194Z,35.73
2023-03-16T01:27:43.342Z,35.88
2023-03-16T01:30:12.870Z,35.88
2023-03-16T01:32:41.947Z,35.80
2023-03-16T01:35:12.535Z,35.88
2023-03-16T01:37:40.494Z,35.82
2023-03-16T01:40:23.092Z,36.02
2023-03-16T01:43:02.962Z,35.78
2023-03-16T01:46:05.459Z,36.06
2023-03-16T01:48:47.462Z,36.13
2023-03-16T01:51:43.978Z,35.96
2023-03-16T01:54:34.714Z,35.88
2023-03-16T01:57:08.253Z,35.91
2023-03-16T01:59:49.477Z,35.92
2023-03-16T02:02:30.517Z,35.95
2023-03-16T02:05:14.694Z,35.70
2023-03-16T02:07:52.138Z,35.55
2023-03-16T02:10:20.950Z,35.84
2023-03-16T02:12:49.655Z,35.96
2023-03-16T02:15:17.713Z,36.04
2023-03-16T02:17:47.112Z,36.21
2023-03-16T02:20:36.825Z,35.75
2023-03-16T02:23:08.844Z,35.99
2023-03-16T02:25:53.560Z,35.80
2023-03-16T02:28:54.639Z,35.65
2023-03-16T02:31:22.860Z,35.80
2023-03-16T02:33:52.628Z,35.88
2023-03-16T02:36:22.517Z,35.81
2023-03-16T02:38:51.050Z,35.79
2023-03-16T02:41:21.667Z,35.63
2023-03-16T02:44:11.280Z,35.73
2023-03-16T02:46:40.261Z,35.61
2023-03-16T02:49:22.137Z,35.97
2023-03-16T02:51:50.247Z,35.93
2023-03-16T02:54:20.027Z,35.70
2023-03-16T02:56:48.036Z,35.72
2023-03-16T02:59:16.441Z,35.72
2023-03-16T03:01:44.628Z,35.51
2023-03-16T03:04:13.575Z,35.77
2023-03-16T03:06:41.951Z,35.54
2023-03-16T03:09:13.467Z,35.93
2023-03-16T03:11:42.799Z,35.74
2023-03-16T03:14:11.174Z,35.70
2023-03-16T03:16:41.450Z,35.42
2023-03-16T03:19:11.526Z,35.56
2023-03-16T03:21:41.849Z,35.34
2023-03-16T03:24:10.625Z,35.35
2023-03-16T03:26:38.737Z,35.43
2023-03-16T03:29:11.011Z,35.32
2023-03-16T03:31:40.255Z,35.23
2023-03-16T03:34:08.857Z,35.51
2023-03-16T03:36:36.921Z,35.44
2023-03-16T03:39:07.487Z,35.08
2023-03-16T03:41:36.724Z,35.33
2023-03-16T03:44:06.327Z,35.37
2023-03-16T03:46:36.239Z,35.66
2023-03-16T03:49:05.572Z,35.36
2023-03-16T03:51:36.145Z,35.63
2023-03-16T03:54:15.112Z,35.59
2023-03-16T03:56:45.907Z,35.37
2023-03-16T03:59:17.466Z,35.41
2023-03-16T04:02:09.515Z,35.47
2023-03-16T04:04:44.128Z,35.55
2023-03-16T04:07:14.106Z,35.20
2023-03-16T04:09:44.969Z,35.52
2023-03-16T04:12:23.155Z,35.42
2023-03-16T04:14:52.219Z,35.15
2023-03-16T04:17:22.506Z,35.13
2023-03-16T04:19:52.232Z,35.21
2023-03-16T04:22:23.436Z,35.20
2023-03-16T04:24:52.875Z,35.31
2023-03-16T04:27:22.098Z,35.38
2023-03-16T04:29:50.423Z,35.19
2023-03-16T04:32:18.660Z,35.08
2023-03-16T04:34:48.470Z,34.81
2023-03-16T04:37:19.209Z,34.81
2023-03-16T04:39:47.911Z,35.27
2023-03-16T04:42:15.831Z,34.97
2023-03-16T04:44:45.278Z,35.05
2023-03-16T04:47:16.918Z,34.86
2023-03-16T04:49:46.410Z,34.90
2023-03-16T04:52:14.460Z,34.93
2023-03-16T04:54:42.957Z,34.74
2023-03-16T04:57:19.450Z,34.92
2023-03-16T04:59:52.372Z,35.00
2023-03-16T05:02:33.049Z,34.99
2023-03-16T05:05:06.788Z,35.18
2023-03-16T05:07:36.583Z,35.12
2023-03-16T05:10:05.234Z,35.09
2023-03-16T05:12:33.299Z,35.44
2023-03-16T05:15:06.406Z,35.73
2023-03-16T05:17:42.150Z,35.25
2023-03-16T05:20:15.875Z,35.13
2023-03-16T05:22:48.770Z,35.26
2023-03-16T05:25:29.747Z,35.33
2023-03-16T05:28:00.830Z,35.34
2023-03-16T05:30:35.169Z,34.95
2023-03-16T05:33:05.903Z,34.99
2023-03-16T05:35:35.474Z,34.75
2023-03-16T05:38:08.778Z,34.77
2023-03-16T05:40:40.528Z,34.85
2023-03-16T05:43:29.262Z,34.67
2023-03-16T05:45:57.884Z,34.53
2023-03-16T05:48:26.892Z,34.48
2023-03-16T05:50:58.526Z,34.24
2023-03-16T05:53:31.162Z,34.14
2023-03-16T05:56:07.316Z,34.14
2023-03-16T05:58:39.940Z,34.36
2023-03-16T06:01:13.380Z,34.05
2023-03-16T06:03:43.905Z,34.05
2023-03-16T06:06:19.739Z,34.46
2023-03-16T06:08:55.238Z,34.41
2023-03-16T06:11:25.889Z,34.59
2023-03-16T06:13:54.165Z,34.49
2023-03-16T06:16:22.586Z,34.27
2023-03-16T06:18:51.677Z,34.20
2023-03-16T06:21:19.978Z,34.32
2023-03-16T06:23:51.527Z,34.63
2023-03-16T06:26:21.624Z,34.86
2023-03-16T06:28:51.333Z,34.60
2023-03-16T06:31:20.308Z,34.71
2023-03-16T06:33:48.384Z,34.50
2023-03-16T06:36:16.835Z,34.52
2023-03-16T06:38:48.971Z,34.58
2023-03-16T06:41:25.445Z,34.62
2023-03-16T06:43:54.384Z,34.53
2023-03-16T06:46:22.802Z,34.44
2023-03-16T06:48:51.486Z,34.50
2023-03-16T06:51:20.973Z,34.70
2023-03-16T06:53:51.418Z,34.44
2023-03-16T06:56:20.826Z,34.69
2023-03-16T06:58:48.937Z,34.51
2023-03-16T07:01:17.877Z,34.55
2023-03-16T07:03:46.230Z,34.74
2023-03-16T07:06:52.772Z,34.79
2023-03-16T07:09:22.165Z,34.85
2023-03-16T07:11:51.604Z,34.65
2023-03-16T07:14:22.975Z,34.72
2023-03-16T07:16:54.230Z,34.97
2023-03-16T07:19:25.132Z,34.80
2023-03-16T07:21:57.741Z,35.02
2023-03-16T07:24:28.722Z,35.17
2023-03-16T07:26:58.000Z,35.09
2023-03-16T07:29:34.378Z,35.09
2023-03-16T07:32:05.217Z,35.27
2023-03-16T07:34:40.307Z,35.20
2023-03-16T07:37:11.360Z,35.23
2023-03-16T07:39:42.150Z,35.48
2023-03-16T07:42:16.909Z,35.25
2023-03-16T07:45:03.145Z,35.35
2023-03-16T07:47:33.986Z,35.53
2023-03-16T07:50:11.817Z,35.32
2023-03-16T07:52:46.758Z,35.34
2023-03-16T07:55:18.639Z,35.60
2023-03-16T07:57:48.501Z,35.69
2023-03-16T08:00:24.238Z,35.72
2023-03-16T08:02:54.375Z,35.90
2023-03-16T08:05:27.706Z,35.51
2023-03-16T08:08:01.988Z,35.61
2023-03-16T08:10:34.137Z,35.71
2023-03-16T08:13:13.042Z,35.92
2023-03-16T08:16:10.599Z,36.06
2023-03-16T08:18:42.811Z,36.00
2023-03-16T08:21:14.371Z,35.90
2023-03-16T08:23:44.573Z,30.93
2023-03-16T08:26:20.040Z,30.54
2023-03-16T08:28:52.230Z,30.23
2023-03-16T08:31:22.531Z,30.29
2023-03-16T08:33:57.354Z,30.24
2023-03-16T08:36:30.473Z,30.46
2023-03-16T08:39:07.087Z,30.44
2023-03-16T08:41:43.686Z,30.55
2023-03-16T08:44:24.233Z,30.32
2023-03-16T08:46:54.098Z,31.35
2023-03-16T08:49:24.302Z,32.53
2023-03-16T08:52:04.073Z,32.51
2023-03-16T08:54:34.203Z,32.64
2023-03-16T08:57:12.840Z,32.84
2023-03-16T08:59:45.220Z,30.76
2023-03-16T09:02:15.018Z,31.71
2023-03-16T09:04:46.450Z,31.35
2023-03-16T09:07:15.649Z,29.91
2023-03-16T09:09:44.221Z,29.44
2023-03-16T09:12:13.795Z,28.20
2023-03-16T09:14:49.151Z,27.14
2023-03-16T09:17:18.819Z,28.42
2023-03-16T09:19:51.788Z,28.42
2023-03-16T09:22:22.434Z,28.85
2023-03-16T09:24:51.508Z,29.91
2023-03-16T09:27:23.890Z,29.52
2023-03-16T09:29:56.218Z,29.31
2023-03-16T09:32:25.036Z,28.89
2023-03-16T09:34:55.909Z,27.07
2023-03-16T09:37:44.484Z,26.55
2023-03-16T09:40:29.776Z,27.43
2023-03-16T09:43:45.837Z,28.42
2023-03-16T09:46:42.670Z,26.08
2023-03-16T09:49:18.977Z,26.28
2023-03-16T09:51:53.361Z,28.28
2023-03-16T09:54:25.285Z,28.94
2023-03-16T09:56:55.649Z,29.03
2023-03-16T09:59:27.543Z,29.31
2023-03-16T10:02:23.180Z,29.40
2023-03-16T10:05:12.821Z,29.73
2023-03-16T10:07:51.438Z,29.89
2023-03-16T10:10:46.388Z,30.29
2023-03-16T10:13:31.790Z,30.40
2023-03-16T10:16:06.055Z,30.14
2023-03-16T10:18:43.203Z,30.82
2023-03-16T10:21:18.542Z,30.94
2023-03-16T10:23:48.980Z,31.11
2023-03-16T10:26:31.880Z,30.91
2023-03-16T10:29:03.490Z,31.21
2023-03-16T10:31:35.667Z,31.40
2023-03-16T10:34:06.573Z,31.23
2023-03-16T10:36:38.972Z,31.45
2023-03-16T10:39:17.731Z,31.71
2023-03-16T10:41:56.267Z,31.87
2023-03-16T10:44:30.124Z,31.85
2023-03-16T10:47:18.692Z,31.89
2023-03-16T10:49:49.726Z,31.87
2023-03-16T10:52:29.884Z,31.92
2023-03-16T10:55:07.103Z,31.98
2023-03-16T10:57:46.585Z,32.12
2023-03-16T11:00:34.779Z,32.18
2023-03-16T11:03:27.663Z,32.51
2023-03-16T11:06:05.195Z,32.86
2023-03-16T11:08:39.061Z,31.09
2023-03-16T11:11:31.297Z,29.74
2023-03-16T11:14:10.527Z,29.94
2023-03-16T11:16:57.238Z,28.85
2023-03-16T11:20:00.574Z,27.71
2023-03-16T11:22:30.350Z,27.35
2023-03-16T11:25:33.959Z,27.53
2023-03-16T11:28:13.946Z,28.60
2023-03-16T11:30:54.477Z,28.74
2023-03-16T11:33:32.249Z,27.95
2023-03-16T11:36:09.909Z,27.76
2023-03-16T11:39:25.662Z,27.85
2023-03-16T11:42:20.879Z,28.51
2023-03-16T11:45:20.323Z,28.04
2023-03-16T11:48:07.445Z,27.80
2023-03-16T11:51:04.562Z,26.74
2023-03-16T11:53:48.613Z,24.85
2023-03-16T11:56:29.865Z,23.95
2023-03-16T11:59:09.342Z,25.95
2023-03-16T12:02:02.787Z,26.20
2023-03-16T12:05:00.096Z,26.57
2023-03-16T12:08:09.404Z,26.31
2023-03-16T12:11:08.289Z,25.60
2023-03-16T12:13:54.859Z,25.33
2023-03-16T12:17:12.488Z,25.94
2023-03-16T12:19:52.257Z,26.80
2023-03-16T12:22:31.146Z,27.42
2023-03-16T12:25:00.680Z,26.02
2023-03-16T12:27:36.837Z,26.04
2023-03-16T12:30:35.604Z,26.21
2023-03-16T12:33:07.817Z,26.67
2023-03-16T12:35:43.255Z,26.28
2023-03-16T12:38:48.316Z,26.02
2023-03-16T12:41:41.288Z,25.53
2023-03-16T12:44:16.306Z,25.37
2023-03-16T12:47:09.673Z,26.03
2023-03-16T12:49:38.705Z,25.58
2023-03-16T12:52:11.336Z,25.60
2023-03-16T12:54:52.569Z,25.00
2023-03-16T12:57:27.415Z,25.88
2023-03-16T12:59:59.716Z,26.48
2023-03-16T13:02:37.277Z,25.85
2023-03-16T13:05:13.273Z,26.18
2023-03-16T13:07:52.557Z,25.92
2023-03-16T13:10:23.132Z,26.76
2023-03-16T13:12:56.446Z,26.23
2023-03-16T13:15:49.981Z,26.15
2023-03-16T13:18:23.483Z,25.57
2023-03-16T13:21:01.950Z,25.66
2023-03-16T13:23:52.485Z,25.72
2023-03-16T13:26:36.506Z,25.80
2023-03-16T13:29:24.130Z,26.24
2023-03-16T13:31:59.452Z,26.08
2023-03-16T13:34:31.343Z,26.59
2023-03-16T13:37:01.807Z,27.17
2023-03-16T13:39:31.993Z,27.67
2023-03-16T13:42:19.116Z,27.33
2023-03-16T13:44:48.661Z,27.84
2023-03-16T13:47:21.467Z,27.76
2023-03-16T13:49:55.321Z,27.09
2023-03-16T13:52:30.524Z,27.50
2023-03-16T13:55:01.187Z,26.63
2023-03-16T13:57:37.633Z,26.15
2023-03-16T14:00:25.035Z,26.48
2023-03-16T14:02:56.466Z,26.22
2023-03-16T14:05:31.101Z,26.44
2023-03-16T14:08:01.161Z,26.75
2023-03-16T14:10:35.046Z,26.73
2023-03-16T14:13:10.210Z,27.23
2023-03-16T14:15:38.932Z,27.17
2023-03-16T14:18:23.057Z,26.53
2023-03-16T14:20:53.176Z,26.32
2023-03-16T14:23:23.393Z,26.04
2023-03-16T14:25:53.748Z,26.17
2023-03-16T14:28:31.087Z,26.57
2023-03-16T14:31:12.810Z,26.12
2023-03-16T14:33:43.401Z,27.25
2023-03-16T14:36:17.760Z,26.52
2023-03-16T14:38:48.658Z,26.43
2023-03-16T14:41:24.252Z,26.74
2023-03-16T14:43:56.565Z,26.50
2023-03-16T14:46:30.310Z,26.71
2023-03-16T14:49:31.597Z,26.80
2023-03-16T14:52:19.835Z,26.82
2023-03-16T14:54:48.258Z,27.60
2023-03-16T14:57:17.728Z,27.52
2023-03-16T14:59:46.135Z,26.89
2023-03-16T15:02:25.126Z,26.82
2023-03-16T15:04:55.005Z,26.89
2023-03-16T15:07:28.745Z,27.25
2023-03-16T15:10:06.625Z,27.14
2023-03-16T15:12:35.042Z,27.33
2023-03-16T15:15:16.304Z,27.73
2023-03-16T15:17:48.365Z,27.33
2023-03-16T15:20:19.827Z,27.75
2023-03-16T15:22:49.356Z,28.19
2023-03-16T15:25:36.513Z,28.00
2023-03-16T15:28:21.561Z,28.31
2023-03-16T15:30:54.895Z,28.43
2023-03-16T15:33:23.482Z,28.62
2023-03-16T15:35:55.776Z,28.71
2023-03-16T15:38:33.573Z,28.90
2023-03-16T15:41:02.411Z,29.04
2023-03-16T15:43:32.190Z,29.33
2023-03-16T15:46:00.727Z,29.08
2023-03-16T15:48:28.715Z,29.52
2023-03-16T15:51:01.987Z,29.52
2023-03-16T15:53:46.614Z,29.02
2023-03-16T15:56:17.604Z,28.70
2023-03-16T15:58:47.209Z,29.01
2023-03-16T16:01:22.259Z,29.08
2023-03-16T16:03:52.074Z,29.08
2023-03-16T16:06:20.895Z,29.17
2023-03-16T16:08:49.079Z,29.36
2023-03-16T16:11:21.943Z,29.67
2023-03-16T16:13:50.622Z,29.14
2023-03-16T16:16:20.073Z,28.82
2023-03-16T16:18:48.738Z,28.82
2023-03-16T16:21:24.516Z,28.72
2023-03-16T16:23:53.409Z,28.70
2023-03-16T16:26:41.590Z,28.83
2023-03-16T16:29:18.628Z,28.93
2023-03-16T16:31:46.942Z,29.21
2023-03-16T16:34:21.595Z,29.15
2023-03-16T16:36:50.118Z,29.25
2023-03-16T16:39:18.140Z,29.48
2023-03-16T16:41:48.587Z,29.36
2023-03-16T16:44:19.619Z,29.58
2023-03-16T16:46:49.535Z,29.53
2023-03-16T16:49:24.514Z,29.95
2023-03-16T16:51:53.628Z,30.04
2023-03-16T16:54:24.389Z,30.46
2023-03-16T16:56:54.773Z,30.17
2023-03-16T16:59:44.177Z,30.62
2023-03-16T17:02:31.834Z,30.33
2023-03-16T17:05:00.146Z,30.53
2023-03-16T17:07:28.577Z,30.69
2023-03-16T17:09:56.554Z,30.88
2023-03-16T17:12:25.040Z,30.70
2023-03-16T17:14:53.207Z,30.76
2023-03-16T17:17:22.470Z,30.97
2023-03-16T17:19:50.610Z,31.21
2023-03-16T17:22:24.924Z,31.15
2023-03-16T17:24:54.130Z,31.23
2023-03-16T17:27:30.182Z,31.28
2023-03-16T17:29:58.973Z,31.27
2023-03-16T17:32:27.566Z,31.42
2023-03-16T17:34:55.862Z,31.50
2023-03-16T17:37:24.275Z,31.59
2023-03-16T17:39:52.532Z,31.65
2023-03-16T17:42:23.165Z,31.98
2023-03-16T17:44:52.936Z,32.16
2023-03-16T17:47:24.083Z,32.21
2023-03-16T17:49:52.600Z,32.31
2023-03-16T17:52:23.814Z,32.20
2023-03-16T17:54:53.407Z,32.25
2023-03-16T17:57:31.287Z,32.55
2023-03-16T18:00:00.937Z,32.62
2023-03-16T18:02:55.853Z,32.49
2023-03-16T18:05:26.717Z,32.67
2023-03-16T18:07:58.638Z,32.79
2023-03-16T18:10:29.465Z,32.77
2023-03-16T18:13:11.135Z,32.90
2023-03-16T18:15:39.675Z,32.91
2023-03-16T18:18:08.356Z,33.14
2023-03-16T18:20:37.860Z,33.01
2023-03-16T18:23:19.741Z,33.18
2023-03-16T18:25:51.137Z,33.13
2023-03-16T18:28:20.747Z,33.33
2023-03-16T18:30:53.767Z,33.29
2023-03-16T18:33:39.443Z,33.43
2023-03-16T18:36:15.855Z,33.27
2023-03-16T18:38:47.537Z,33.32
2023-03-16T18:41:24.501Z,33.36
2023-03-16T18:43:56.085Z,33.37
2023-03-16T18:46:32.666Z,33.55
2023-03-16T18:49:05.154Z,33.44
2023-03-16T18:51:33.482Z,33.38
2023-03-16T18:54:02.456Z,33.47
2023-03-16T18:56:30.713Z,33.63
2023-03-16T18:58:59.551Z,33.63
2023-03-16T19:01:30.444Z,33.73
2023-03-16T19:04:01.039Z,33.83
2023-03-16T19:06:35.020Z,33.98
2023-03-16T19:09:08.919Z,33.84
2023-03-16T19:11:42.386Z,34.40
2023-03-16T19:14:23.851Z,34.35
2023-03-16T19:16:53.450Z,34.50
2023-03-16T19:19:23.433Z,34.69
2023-03-16T19:21:54.319Z,34.73
2023-03-16T19:24:29.461Z,34.75
2023-03-16T19:26:57.983Z,35.08
2023-03-16T19:29:32.232Z,35.17
2023-03-16T19:32:00.984Z,35.40
2023-03-16T19:34:29.545Z,35.26
2023-03-16T19:36:57.683Z,35.54
2023-03-16T19:39:27.094Z,35.71
2023-03-16T19:41:59.197Z,35.81
2023-03-16T19:44:29.246Z,35.64
2023-03-16T19:46:59.236Z,35.82
2023-03-16T19:49:28.142Z,35.91
2023-03-16T19:51:56.835Z,36.06
2023-03-16T19:54:27.712Z,35.86
2023-03-16T19:56:57.034Z,35.85
2023-03-16T19:59:31.301Z,36.11
2023-03-16T20:02:00.068Z,36.19
2023-03-16T20:04:29.090Z,36.10
2023-03-16T20:06:57.230Z,35.96
2023-03-16T20:09:26.392Z,36.18
2023-03-16T20:11:54.586Z,36.20
2023-03-16T20:14:32.452Z,36.19
2023-03-16T20:17:01.169Z,36.23
2023-03-16T20:19:29.808Z,36.23
2023-03-16T20:21:57.961Z,36.23
2023-03-16T20:24:28.963Z,36.25
2023-03-16T20:26:57.444Z,36.20
2023-03-16T20:29:32.924Z,35.98
2023-03-16T20:32:01.506Z,36.30
2023-03-16T20:34:32.288Z,36.01
2023-03-16T20:37:00.656Z,36.16
2023-03-16T20:39:29.171Z,36.17
2023-03-16T20:41:57.267Z,36.29
2023-03-16T20:44:26.665Z,36.06
2023-03-16T20:46:54.902Z,36.13
2023-03-16T20:49:23.843Z,36.15
2023-03-16T20:51:52.667Z,36.34
2023-03-16T20:54:21.028Z,36.20
2023-03-16T20:56:49.446Z,36.32
2023-03-16T20:59:26.771Z,36.24
2023-03-16T21:01:55.894Z,36.24
2023-03-16T21:04:28.914Z,36.39
2023-03-16T21:06:57.104Z,36.21
2023-03-16T21:09:25.824Z,36.22
2023-03-16T21:11:54.177Z,36.17
2023-03-16T21:14:24.318Z,36.18
2023-03-16T21:16:53.630Z,36.13
2023-03-16T21:19:23.794Z,36.10
2023-03-16T21:21:52.350Z,36.06
2023-03-16T21:24:21.319Z,36.27
2023-03-16T21:26:49.681Z,36.31
2023-03-16T21:29:22.032Z,36.24
2023-03-16T21:31:50.263Z,36.07
2023-03-16T21:34:24.165Z,35.95
2023-03-16T21:36:52.762Z,36.10
2023-03-16T21:39:23.892Z,36.09
2023-03-16T21:41:51.952Z,36.14
2023-03-16T21:44:20.910Z,36.03
2023-03-16T21:46:49.143Z,35.82
2023-03-16T21:49:18.166Z,35.41
2023-03-16T21:51:46.287Z,35.58
2023-03-16T21:54:15.864Z,35.68
2023-03-16T21:56:44.687Z,35.77
2023-03-16T21:59:13.501Z,35.61
2023-03-16T22:01:58.203Z,35.48
2023-03-16T22:04:29.685Z,35.57
2023-03-16T22:06:57.880Z,34.90
2023-03-16T22:09:30.268Z,35.14
2023-03-16T22:11:58.835Z,35.25
2023-03-16T22:14:27.408Z,35.18
2023-03-16T22:16:56.665Z,35.02
2023-03-16T22:19:27.608Z,35.14
2023-03-16T22:21:57.137Z,35.13
2023-03-16T22:24:30.490Z,35.13
2023-03-16T22:26:59.589Z,35.00
2023-03-16T22:29:29.921Z,34.97
2023-03-16T22:32:01.463Z,35.13
2023-03-16T22:34:44.830Z,35.03
2023-03-16T22:37:19.670Z,35.07
2023-03-16T22:39:48.606Z,35.08
2023-03-16T22:42:19.559Z,35.15
2023-03-16T22:44:47.888Z,35.12
2023-03-16T22:47:27.625Z,35.08
2023-03-16T22:49:56.135Z,35.05
2023-03-16T22:52:29.520Z,35.06
2023-03-16T22:54:59.435Z,34.94
2023-03-16T22:57:29.025Z,35.11
2023-03-16T22:59:58.032Z,35.08
2023-03-16T23:02:28.234Z,35.06
2023-03-16T23:04:56.673Z,34.93
2023-03-16T23:07:25.292Z,34.91
2023-03-16T23:09:53.784Z,35.03
2023-03-16T23:12:22.500Z,35.32
2023-03-16T23:14:50.918Z,34.99
2023-03-16T23:17:22.394Z,35.01
2023-03-16T23:19:50.846Z,34.94
2023-03-16T23:22:18.931Z,35.20
2023-03-16T23:24:47.592Z,35.02
2023-03-16T23:27:22.692Z,34.95
2023-03-16T23:29:51.185Z,34.88
2023-03-16T23:32:19.534Z,34.99
2023-03-16T23:34:48.070Z,34.86
2023-03-16T23:37:16.521Z,34.95
2023-03-16T23:39:44.936Z,34.79
2023-03-16T23:42:13.005Z,34.95
2023-03-16T23:44:41.765Z,34.84
2023-03-16T23:47:11.313Z,34.99
2023-03-16T23:49:41.948Z,34.81
2023-03-16T23:52:12.107Z,34.66
2023-03-16T23:54:40.646Z,35.11
2023-03-16T23:57:09.129Z,34.75
2023-03-16T23:59:37.481Z,34.93
